This is the latest recevied weather packets stored in our database for station/object IW2NIA-3. If no packets are shown the sender has not sent any weather packets the latest 10 day(s).
| Time | Temp. | Humidity | Pressure | Rain* | Wind** | Luminosity | Snow |
|---|---|---|---|---|---|---|---|
| 1788425307 | 26.11° C | 61% | 1019.9 hPa | 0 mm | - | - | - |
| 1788424428 | 26.11° C | 59% | 1019.7 hPa | 0 mm | - | - | - |
| 1788423522 | 25.56° C | 59% | 1019.9 hPa | 0 mm | - | - | - |
| 1788422622 | 25° C | 62% | 1019.8 hPa | 0 mm | - | - | - |
| 1788421706 | 25° C | 64% | 1019.6 hPa | 0 mm | - | - | - |
| 1788420821 | 24.44° C | 65% | 1019.5 hPa | 0 mm | - | - | - |
| 1788419920 | 23.89° C | 66% | 1019.6 hPa | 0 mm | - | - | - |
| 1788419021 | 23.33° C | 68% | 1019.5 hPa | 0 mm | - | - | - |
| 1788418118 | 22.78° C | 70% | 1019.5 hPa | 0 mm | - | - | - |
| 1788417212 | 22.22° C | 72% | 1019.5 hPa | 0 mm | - | - | - |
| 1788416324 | 21.67° C | 74% | 1019.4 hPa | 0 mm | - | - | - |
| 1788415421 | 21.11° C | 76% | 1019.3 hPa | 0 mm | - | - | - |
| 1788414515 | 20° C | 78% | 1019.2 hPa | 0 mm | - | - | - |
| 1788413614 | 19.44° C | 80% | 1019.1 hPa | 0 mm | - | - | - |
| 1788412709 | 18.89° C | 81% | 1019 hPa | 0 mm | - | - | - |
| 1788411828 | 18.89° C | 81% | 1018.9 hPa | 0 mm | - | - | - |
| 1788410921 | 18.89° C | 81% | 1018.6 hPa | 0 mm | - | - | - |
| 1788410011 | 18.89° C | 81% | 1018.4 hPa | 0 mm | - | - | - |
| 1788409124 | 18.89° C | 82% | 1018.4 hPa | 0 mm | - | - | - |
| 1788408228 | 19.44° C | 81% | 1018.3 hPa | 0 mm | - | - | - |
| 1788407325 | 19.44° C | 81% | 1018.2 hPa | 0 mm | - | - | - |
| 1788406422 | 19.44° C | 81% | 1018.1 hPa | 0 mm | - | - | - |
| 1788405522 | 19.44° C | 82% | 1018 hPa | 0 mm | - | - | - |
| 1788404615 | 19.44° C | 83% | 1017.9 hPa | 0 mm | - | - | - |
| 1788403714 | 19.44° C | 84% | 1018 hPa | 0 mm | - | - | - |
* Rain latest hour (hover to see other rain measurements)
** Current wind speed in m/s (hover to see current wind gust speed)